Time;durP1;ratioP1;P1;durP2;ratioP2;P2;SDS_P1;SDS_P2;PMS_P1;PMS_P2;Temp;Humidity;BMP_temperature;BMP_pressure;BME280_temperature;BME280_humidity;BME280_pressure;Samples;Min_cycle;Max_cycle;Signal;HPM_P1;HPM_P2
2024/01/21 00:01:16;;;;;;;;;;;11.30;56.20;;;;;;6246054;23;20323;-70
2024/01/21 00:03:42;;;;;;;;;;;11.10;52.00;;;;;;6246021;23;20286;-70
2024/01/21 00:06:07;;;;;;;;;;;11.30;56.30;;;;;;6246736;23;19912;-71
2024/01/21 00:08:33;;;;;;;;;;;11.10;56.10;;;;;;6246071;23;19904;-70
2024/01/21 00:10:58;;;;;;;;;;;11.20;56.20;;;;;;6246452;23;20345;-71
2024/01/21 00:13:24;;;;;;;;;;;11.00;56.20;;;;;;6245935;23;19915;-70
2024/01/21 00:15:49;;;;;;;;;;;10.80;55.90;;;;;;6245913;23;19903;-70
2024/01/21 00:18:16;;;;;;;;;;;11.20;56.10;;;;;;6245751;23;20381;-70
2024/01/21 00:20:42;;;;;;;;;;;11.10;56.10;;;;;;6246565;23;19998;-70
2024/01/21 00:23:07;;;;;;;;;;;11.00;56.20;;;;;;6245927;23;20341;-70
2024/01/21 00:25:33;;;;;;;;;;;11.20;56.40;;;;;;6245777;23;19903;-70
2024/01/21 00:27:58;;;;;;;;;;;11.40;56.50;;;;;;6245738;23;20315;-70
2024/01/21 00:30:24;;;;;;;;;;;11.40;56.60;;;;;;6245814;23;19911;-70
2024/01/21 00:32:49;;;;;;;;;;;11.30;56.30;;;;;;6245725;23;19939;-70
2024/01/21 00:35:15;;;;;;;;;;;11.10;56.40;;;;;;6245548;23;19949;-70
2024/01/21 00:37:40;;;;;;;;;;;11.20;56.30;;;;;;6246108;23;19918;-70
2024/01/21 00:40:08;;;;;;;;;;;11.10;55.70;;;;;;6246077;23;19903;-70
2024/01/21 00:42:34;;;;;;;;;;;11.10;54.90;;;;;;6245518;23;19908;-70
2024/01/21 00:44:59;;;;;;;;;;;11.20;56.20;;;;;;6245409;22;19914;-70
2024/01/21 00:47:25;;;;;;;;;;;11.10;55.90;;;;;;6245613;23;19904;-70
2024/01/21 00:49:50;;;;;;;;;;;11.10;55.60;;;;;;6245555;23;19903;-70
2024/01/21 00:52:16;;;;;;;;;;;11.20;56.10;;;;;;6245523;23;19939;-70
2024/01/21 00:54:41;;;;;;;;;;;11.20;55.80;;;;;;6245547;23;19907;-70
2024/01/21 00:57:07;;;;;;;;;;;11.30;56.10;;;;;;6245316;23;19911;-70
2024/01/21 00:59:32;;;;;;;;;;;11.10;55.90;;;;;;6245510;23;19904;-70
2024/01/21 01:01:58;;;;;;;;;;;11.20;55.80;;;;;;6245441;23;20235;-70
2024/01/21 01:04:23;;;;;;;;;;;11.20;55.90;;;;;;6245501;23;19908;-70
2024/01/21 01:06:49;;;;;;;;;;;11.20;55.80;;;;;;6245418;23;20293;-70
2024/01/21 01:09:15;;;;;;;;;;;11.10;55.40;;;;;;6245694;23;19910;-73
2024/01/21 01:11:40;;;;;;;;;;;11.10;55.50;;;;;;6244983;23;19903;-72
2024/01/21 01:14:06;;;;;;;;;;;11.20;55.40;;;;;;6245584;23;19904;-72
2024/01/21 01:16:39;;;;;;;;;;;11.20;55.40;;;;;;6245512;23;19904;-73
2024/01/21 01:19:08;;;;;;;;;;;11.10;51.20;;;;;;6245363;23;19926;-72
2024/01/21 01:21:34;;;;;;;;;;;11.00;55.80;;;;;;6245238;23;19995;-73
2024/01/21 01:24:00;;;;;;;;;;;11.00;55.80;;;;;;6245465;23;19903;-73
2024/01/21 01:26:26;;;;;;;;;;;11.00;55.60;;;;;;6246180;23;19927;-72
2024/01/21 01:28:52;;;;;;;;;;;11.00;56.00;;;;;;6245790;23;19903;-73
2024/01/21 01:31:19;;;;;;;;;;;11.10;55.80;;;;;;6245783;23;20342;-73
2024/01/21 01:33:45;;;;;;;;;;;11.30;56.10;;;;;;6245615;23;19930;-73
2024/01/21 01:36:11;;;;;;;;;;;11.00;56.30;;;;;;6245760;23;19904;-73
2024/01/21 01:38:37;;;;;;;;;;;11.10;56.10;;;;;;6245171;22;20048;-73
2024/01/21 01:41:04;;;;;;;;;;;11.20;56.20;;;;;;6245722;23;20216;-73
2024/01/21 01:43:30;;;;;;;;;;;11.00;56.00;;;;;;6245602;23;19949;-73
2024/01/21 01:45:56;;;;;;;;;;;11.00;56.50;;;;;;6245228;22;19919;-73
2024/01/21 01:48:22;;;;;;;;;;;11.00;56.40;;;;;;6245637;23;20306;-73
2024/01/21 01:50:49;;;;;;;;;;;11.10;56.70;;;;;;6245647;23;19910;-72
2024/01/21 01:53:16;;;;;;;;;;;11.00;55.80;;;;;;6245562;23;19907;-73
2024/01/21 01:55:42;;;;;;;;;;;11.00;56.00;;;;;;6245639;23;20230;-70
2024/01/21 01:58:08;;;;;;;;;;;11.10;56.50;;;;;;6244879;23;19912;-71
2024/01/21 02:00:33;;;;;;;;;;;11.00;56.20;;;;;;6244967;23;19930;-70
2024/01/21 02:02:59;;;;;;;;;;;11.40;56.70;;;;;;6245562;23;20042;-70
2024/01/21 02:05:24;;;;;;;;;;;11.10;56.40;;;;;;6244924;23;19903;-70
2024/01/21 02:07:50;;;;;;;;;;;11.20;56.30;;;;;;6244897;23;20274;-70
2024/01/21 02:10:15;;;;;;;;;;;10.80;56.10;;;;;;6244877;23;19910;-70
2024/01/21 02:12:44;;;;;;;;;;;11.00;56.10;;;;;;6245518;23;19911;-70
2024/01/21 02:15:11;;;;;;;;;;;10.80;51.60;;;;;;6244843;23;19911;-70
2024/01/21 02:17:37;;;;;;;;;;;11.00;56.20;;;;;;6244846;23;19915;-70
2024/01/21 02:20:03;;;;;;;;;;;11.00;55.80;;;;;;6244817;23;19910;-71
2024/01/21 02:22:29;;;;;;;;;;;11.00;55.00;;;;;;6245534;23;19950;-70
2024/01/21 02:24:55;;;;;;;;;;;11.00;55.90;;;;;;6257123;23;20226;-70
2024/01/21 02:27:20;;;;;;;;;;;11.00;56.40;;;;;;6246956;23;19979;-70
2024/01/21 02:29:46;;;;;;;;;;;11.70;56.30;;;;;;6247267;23;19934;-70
2024/01/21 02:32:11;;;;;;;;;;;11.00;55.70;;;;;;6246780;23;19911;-71
2024/01/21 02:34:36;;;;;;;;;;;11.00;55.80;;;;;;6246933;23;19907;-70
2024/01/21 02:37:02;;;;;;;;;;;11.00;55.60;;;;;;6246780;23;20270;-70
2024/01/21 02:39:27;;;;;;;;;;;11.00;54.50;;;;;;6246707;23;19935;-70
2024/01/21 02:41:53;;;;;;;;;;;11.00;55.60;;;;;;6246641;23;19907;-70
2024/01/21 02:44:18;;;;;;;;;;;10.90;55.80;;;;;;6246729;23;19904;-70
2024/01/21 02:46:44;;;;;;;;;;;11.00;56.00;;;;;;6244949;23;19916;-70
2024/01/21 02:49:09;;;;;;;;;;;11.00;55.50;;;;;;6245041;23;19904;-70
2024/01/21 02:51:35;;;;;;;;;;;11.40;56.10;;;;;;6247229;23;19904;-73
2024/01/21 02:54:00;;;;;;;;;;;10.90;55.80;;;;;;6246716;23;20338;-73
2024/01/21 02:56:28;;;;;;;;;;;11.00;55.60;;;;;;6246583;23;20005;-73
2024/01/21 02:58:54;;;;;;;;;;;10.90;52.20;;;;;;6246549;23;20416;-73
2024/01/21 03:01:20;;;;;;;;;;;10.80;55.20;;;;;;6246496;23;19903;-73
2024/01/21 03:03:46;;;;;;;;;;;10.90;54.90;;;;;;6246648;23;19911;-72
2024/01/21 03:06:11;;;;;;;;;;;10.90;55.20;;;;;;6246550;23;19986;-73
2024/01/21 03:08:37;;;;;;;;;;;11.00;55.10;;;;;;6246457;23;19982;-73
2024/01/21 03:11:03;;;;;;;;;;;11.50;55.60;;;;;;6246447;23;19931;-73
2024/01/21 03:13:28;;;;;;;;;;;11.60;55.50;;;;;;6246500;23;19903;-72
2024/01/21 03:15:54;;;;;;;;;;;11.20;55.80;;;;;;6246400;23;20278;-73
2024/01/21 03:18:20;;;;;;;;;;;11.20;55.50;;;;;;6246308;23;19912;-73
2024/01/21 03:20:46;;;;;;;;;;;10.90;54.70;;;;;;6246925;23;19935;-73
2024/01/21 03:23:12;;;;;;;;;;;11.40;55.50;;;;;;6256547;23;20239;-73
2024/01/21 03:25:37;;;;;;;;;;;10.90;55.30;;;;;;6246422;23;19904;-73
2024/01/21 03:28:03;;;;;;;;;;;11.00;55.60;;;;;;6246226;23;19955;-73
2024/01/21 03:30:29;;;;;;;;;;;10.90;54.50;;;;;;6246318;23;19950;-72
2024/01/21 03:32:54;;;;;;;;;;;11.10;55.30;;;;;;6246066;23;20337;-73
2024/01/21 03:35:20;;;;;;;;;;;10.80;55.70;;;;;;6246257;23;19907;-73
2024/01/21 03:37:46;;;;;;;;;;;10.90;54.60;;;;;;6246681;23;19912;-73
2024/01/21 03:40:12;;;;;;;;;;;10.90;55.50;;;;;;6246879;23;20356;-73
2024/01/21 03:42:38;;;;;;;;;;;10.90;55.00;;;;;;6246507;23;19903;-73
2024/01/21 03:45:04;;;;;;;;;;;11.10;55.10;;;;;;6246530;22;19922;-73
2024/01/21 03:47:33;;;;;;;;;;;10.90;53.70;;;;;;6256841;23;20220;-73
2024/01/21 03:50:00;;;;;;;;;;;10.80;50.60;;;;;;6246097;23;19904;-73
2024/01/21 03:52:26;;;;;;;;;;;10.80;55.00;;;;;;6246605;23;19904;-73
2024/01/21 03:54:53;;;;;;;;;;;10.80;55.20;;;;;;6246738;23;20000;-72
2024/01/21 03:57:18;;;;;;;;;;;10.90;55.10;;;;;;6246614;23;19908;-73
2024/01/21 03:59:44;;;;;;;;;;;10.80;55.00;;;;;;6246817;23;19904;-73
2024/01/21 04:02:10;;;;;;;;;;;10.90;55.10;;;;;;6246205;23;19904;-73
2024/01/21 04:04:36;;;;;;;;;;;10.80;55.20;;;;;;6246219;23;19927;-72
2024/01/21 04:07:02;;;;;;;;;;;10.90;55.10;;;;;;6246450;23;19982;-73
2024/01/21 04:09:29;;;;;;;;;;;10.80;54.80;;;;;;6246437;23;19983;-73
2024/01/21 04:11:55;;;;;;;;;;;10.80;55.00;;;;;;6246356;23;19903;-72
2024/01/21 04:14:21;;;;;;;;;;;10.80;54.80;;;;;;6246020;23;20283;-73
2024/01/21 04:16:47;;;;;;;;;;;10.80;54.70;;;;;;6247028;23;19934;-73
2024/01/21 04:19:12;;;;;;;;;;;10.90;54.90;;;;;;6245932;23;19954;-73
2024/01/21 04:21:38;;;;;;;;;;;10.70;54.70;;;;;;6246428;23;19904;-73
2024/01/21 04:24:04;;;;;;;;;;;10.80;55.10;;;;;;6246017;23;20342;-72
2024/01/21 04:26:31;;;;;;;;;;;10.80;54.70;;;;;;6246310;23;19910;-72
2024/01/21 04:28:56;;;;;;;;;;;10.80;55.20;;;;;;6246471;23;19904;-73
2024/01/21 04:31:22;;;;;;;;;;;11.70;55.00;;;;;;6246329;23;19903;-72
2024/01/21 04:33:48;;;;;;;;;;;10.80;55.00;;;;;;6246403;23;19903;-73
2024/01/21 04:36:18;;;;;;;;;;;10.70;55.10;;;;;;6245984;23;20366;-73
2024/01/21 04:38:44;;;;;;;;;;;10.80;54.60;;;;;;6245701;23;19919;-72
2024/01/21 04:41:11;;;;;;;;;;;10.80;54.60;;;;;;6245820;23;20370;-72
2024/01/21 04:43:37;;;;;;;;;;;11.40;55.30;;;;;;6245774;23;19958;-73
2024/01/21 04:46:03;;;;;;;;;;;10.80;55.20;;;;;;6245839;22;19923;-73
2024/01/21 04:48:29;;;;;;;;;;;11.00;54.90;;;;;;6246134;23;19973;-73
2024/01/21 04:50:55;;;;;;;;;;;10.70;54.70;;;;;;6245733;23;19910;-73
2024/01/21 04:53:21;;;;;;;;;;;10.70;55.20;;;;;;6246089;23;19919;-73
2024/01/21 04:55:46;;;;;;;;;;;10.80;55.40;;;;;;6245466;23;19911;-73
2024/01/21 04:58:12;;;;;;;;;;;10.80;55.60;;;;;;6245462;23;20001;-73
2024/01/21 05:00:37;;;;;;;;;;;10.70;54.80;;;;;;6245514;23;20320;-72
2024/01/21 05:03:03;;;;;;;;;;;10.70;55.00;;;;;;6245338;23;19907;-72
2024/01/21 05:05:29;;;;;;;;;;;10.60;54.10;;;;;;6245719;23;19904;-73
2024/01/21 05:07:54;;;;;;;;;;;11.40;55.40;;;;;;6245440;23;20294;-73
2024/01/21 05:10:20;;;;;;;;;;;10.90;55.70;;;;;;6243708;23;19904;-72
2024/01/21 05:12:45;;;;;;;;;;;10.60;55.40;;;;;;6243741;23;19903;-73
2024/01/21 05:15:10;;;;;;;;;;;9.40;55.00;;;;;;6245822;23;19903;-72
2024/01/21 05:17:36;;;;;;;;;;;10.60;55.40;;;;;;6245220;23;19969;-73
2024/01/21 05:20:03;;;;;;;;;;;10.60;55.40;;;;;;6245311;23;19904;-73
2024/01/21 05:22:28;;;;;;;;;;;10.60;55.40;;;;;;6245198;23;20363;-73
2024/01/21 05:24:54;;;;;;;;;;;11.30;56.20;;;;;;6245965;23;19907;-73
2024/01/21 05:27:19;;;;;;;;;;;10.70;56.00;;;;;;6245223;23;19975;-73
2024/01/21 05:29:45;;;;;;;;;;;10.60;56.30;;;;;;6245087;23;19982;-73
2024/01/21 05:32:10;;;;;;;;;;;10.60;56.20;;;;;;6245120;23;20234;-73
2024/01/21 05:34:36;;;;;;;;;;;10.90;56.00;;;;;;6245882;22;20287;-73
2024/01/21 05:37:01;;;;;;;;;;;10.60;55.60;;;;;;6243339;23;19911;-73
2024/01/21 05:39:27;;;;;;;;;;;10.60;55.60;;;;;;6243378;23;19942;-72
2024/01/21 05:41:59;;;;;;;;;;;11.10;56.20;;;;;;6245925;23;19903;-73
2024/01/21 05:44:25;;;;;;;;;;;10.60;51.30;;;;;;6245560;23;19903;-72
2024/01/21 05:46:51;;;;;;;;;;;10.60;55.50;;;;;;6244993;22;20291;-73
2024/01/21 05:49:17;;;;;;;;;;;10.70;54.60;;;;;;6245260;23;19935;-73
2024/01/21 05:51:43;;;;;;;;;;;10.80;55.20;;;;;;6245690;23;19907;-73
2024/01/21 05:54:09;;;;;;;;;;;10.10;54.80;;;;;;6245690;23;19910;-71
2024/01/21 05:56:36;;;;;;;;;;;11.10;55.50;;;;;;6245122;23;19915;-70
2024/01/21 05:59:02;;;;;;;;;;;10.60;55.10;;;;;;6245384;23;19911;-70
2024/01/21 06:01:28;;;;;;;;;;;10.70;55.20;;;;;;6244069;23;20327;-70
2024/01/21 06:03:54;;;;;;;;;;;10.70;55.30;;;;;;6245560;23;19907;-70
2024/01/21 06:06:20;;;;;;;;;;;11.40;55.80;;;;;;6245502;23;19910;-70
2024/01/21 06:08:46;;;;;;;;;;;10.70;55.30;;;;;;6245511;23;20183;-70
2024/01/21 06:11:11;;;;;;;;;;;10.70;55.30;;;;;;6245556;23;19986;-70
2024/01/21 06:13:37;;;;;;;;;;;10.70;54.90;;;;;;6245155;23;19935;-70
2024/01/21 06:16:04;;;;;;;;;;;10.50;54.30;;;;;;6245090;23;19904;-70
2024/01/21 06:18:30;;;;;;;;;;;10.60;53.70;;;;;;6245298;23;19947;-70
2024/01/21 06:20:56;;;;;;;;;;;10.70;54.90;;;;;;6245397;23;19903;-70
2024/01/21 06:23:22;;;;;;;;;;;10.70;54.80;;;;;;6245092;23;19903;-70
2024/01/21 06:25:48;;;;;;;;;;;10.80;54.80;;;;;;6245332;23;19965;-70
2024/01/21 06:28:14;;;;;;;;;;;10.80;54.90;;;;;;6244961;23;20327;-70
2024/01/21 06:30:39;;;;;;;;;;;10.70;54.80;;;;;;6243529;23;19982;-70
2024/01/21 06:33:05;;;;;;;;;;;10.70;54.50;;;;;;6244709;23;19977;-70
2024/01/21 06:35:30;;;;;;;;;;;10.70;54.90;;;;;;6244749;23;19911;-70
2024/01/21 06:37:56;;;;;;;;;;;10.70;54.50;;;;;;6244509;23;19912;-70
2024/01/21 06:40:21;;;;;;;;;;;11.10;54.90;;;;;;6245360;23;19935;-70
2024/01/21 06:42:47;;;;;;;;;;;10.80;54.70;;;;;;6244760;23;19930;-70
2024/01/21 06:45:13;;;;;;;;;;;10.90;55.00;;;;;;6244460;22;19953;-70
2024/01/21 06:47:39;;;;;;;;;;;11.00;54.90;;;;;;6244763;23;20225;-70
2024/01/21 06:50:04;;;;;;;;;;;11.40;55.10;;;;;;6244683;23;19914;-70
2024/01/21 06:52:30;;;;;;;;;;;10.90;53.80;;;;;;6244566;23;19911;-70
2024/01/21 06:54:55;;;;;;;;;;;10.80;55.00;;;;;;6244627;23;19910;-70
2024/01/21 06:57:21;;;;;;;;;;;10.70;54.30;;;;;;6244493;23;19938;-70
2024/01/21 06:59:47;;;;;;;;;;;11.20;55.10;;;;;;6245245;23;19982;-70
2024/01/21 07:02:13;;;;;;;;;;;10.80;54.80;;;;;;6244608;23;19912;-70
2024/01/21 07:04:38;;;;;;;;;;;10.80;54.80;;;;;;6244544;23;19983;-70
2024/01/21 07:07:04;;;;;;;;;;;11.00;54.70;;;;;;6245057;23;19910;-70
2024/01/21 07:09:29;;;;;;;;;;;10.80;54.70;;;;;;6245522;23;20286;-70
2024/01/21 07:11:55;;;;;;;;;;;10.90;55.00;;;;;;6246411;23;19903;-70
2024/01/21 07:14:21;;;;;;;;;;;10.90;54.80;;;;;;6246528;23;19904;-70
2024/01/21 07:16:46;;;;;;;;;;;10.80;54.80;;;;;;6246432;23;20282;-70
2024/01/21 07:19:12;;;;;;;;;;;11.40;55.00;;;;;;6246460;23;20002;-70
2024/01/21 07:21:37;;;;;;;;;;;10.80;54.20;;;;;;6246450;23;19911;-70
2024/01/21 07:24:03;;;;;;;;;;;10.80;54.60;;;;;;6246439;23;19904;-70
2024/01/21 07:26:29;;;;;;;;;;;10.80;53.70;;;;;;6246255;23;19903;-70
2024/01/21 07:28:54;;;;;;;;;;;10.80;54.40;;;;;;6246416;23;19982;-70
2024/01/21 07:31:20;;;;;;;;;;;11.40;54.90;;;;;;6246356;23;19903;-70
2024/01/21 07:33:45;;;;;;;;;;;10.70;54.40;;;;;;6246266;23;19903;-70
2024/01/21 07:36:11;;;;;;;;;;;11.00;54.40;;;;;;6246772;23;19904;-70
2024/01/21 07:38:37;;;;;;;;;;;10.80;54.20;;;;;;6245937;23;20057;-70
2024/01/21 07:41:03;;;;;;;;;;;10.70;54.10;;;;;;6246097;23;19973;-70
2024/01/21 07:43:29;;;;;;;;;;;10.80;53.70;;;;;;6256323;23;19960;-70
2024/01/21 07:45:54;;;;;;;;;;;10.70;54.50;;;;;;6245881;22;19915;-70
2024/01/21 07:48:20;;;;;;;;;;;11.10;54.80;;;;;;6246091;23;19904;-70
2024/01/21 07:50:46;;;;;;;;;;;10.80;54.30;;;;;;6246473;23;19973;-70
2024/01/21 07:53:12;;;;;;;;;;;10.70;53.50;;;;;;6246559;23;20294;-70
2024/01/21 07:55:38;;;;;;;;;;;10.80;54.10;;;;;;6245876;23;19908;-70
2024/01/21 07:58:03;;;;;;;;;;;11.00;53.80;;;;;;6245760;23;19947;-70
2024/01/21 08:00:29;;;;;;;;;;;10.90;54.20;;;;;;6245845;23;19903;-70
2024/01/21 08:02:54;;;;;;;;;;;11.00;54.40;;;;;;6245839;23;19904;-70
2024/01/21 08:05:20;;;;;;;;;;;11.10;54.30;;;;;;6246379;23;20046;-72
2024/01/21 08:07:46;;;;;;;;;;;10.70;54.10;;;;;;6245899;23;19910;-71
2024/01/21 08:10:12;;;;;;;;;;;10.70;53.80;;;;;;6246522;23;19903;-71
2024/01/21 08:12:37;;;;;;;;;;;11.80;54.70;;;;;;6245863;23;19904;-72
2024/01/21 08:15:03;;;;;;;;;;;11.30;54.50;;;;;;6245788;23;20328;-68
2024/01/21 08:17:29;;;;;;;;;;;10.70;53.20;;;;;;6245640;23;19956;-71
2024/01/21 08:19:54;;;;;;;;;;;10.60;54.50;;;;;;6245685;23;19990;-70
2024/01/21 08:22:21;;;;;;;;;;;10.90;54.40;;;;;;6245636;23;19904;-70
2024/01/21 08:24:51;;;;;;;;;;;11.40;54.40;;;;;;6246219;23;19903;-70
2024/01/21 08:27:17;;;;;;;;;;;10.70;54.30;;;;;;6246006;23;19926;-71
2024/01/21 08:29:42;;;;;;;;;;;11.00;54.80;;;;;;6245609;23;19911;-70
2024/01/21 08:32:08;;;;;;;;;;;10.60;54.40;;;;;;6246171;23;20239;-69
2024/01/21 08:34:34;;;;;;;;;;;10.70;54.60;;;;;;6246185;23;20224;-74
2024/01/21 08:37:00;;;;;;;;;;;10.60;54.30;;;;;;6246119;23;19926;-72
2024/01/21 08:39:25;;;;;;;;;;;10.60;54.20;;;;;;6245424;23;20319;-71
2024/01/21 08:41:50;;;;;;;;;;;10.60;54.70;;;;;;6245459;23;19985;-72
2024/01/21 08:44:16;;;;;;;;;;;10.80;54.90;;;;;;6245727;23;19910;-72
2024/01/21 08:46:43;;;;;;;;;;;11.10;55.00;;;;;;6245382;22;19916;-71
2024/01/21 08:49:09;;;;;;;;;;;10.60;54.20;;;;;;6245459;23;19911;-72
2024/01/21 08:51:35;;;;;;;;;;;11.00;54.80;;;;;;6246073;22;19903;-72
2024/01/21 08:54:00;;;;;;;;;;;10.60;54.10;;;;;;6245410;23;19903;-72
2024/01/21 08:56:26;;;;;;;;;;;10.60;54.70;;;;;;6245455;23;19904;-72
2024/01/21 08:58:52;;;;;;;;;;;11.20;55.20;;;;;;6245334;23;20255;-72
2024/01/21 09:01:19;;;;;;;;;;;10.60;55.20;;;;;;6246084;23;19918;-72
2024/01/21 09:03:44;;;;;;;;;;;11.30;55.60;;;;;;6245854;23;19927;-72
2024/01/21 09:06:10;;;;;;;;;;;10.70;54.90;;;;;;6245393;23;19904;-72
2024/01/21 09:08:36;;;;;;;;;;;10.50;55.00;;;;;;6245265;23;19904;-72
2024/01/21 09:11:01;;;;;;;;;;;10.50;55.10;;;;;;6245327;23;19904;-71
2024/01/21 09:13:27;;;;;;;;;;;10.50;55.40;;;;;;6245380;23;19950;-72
2024/01/21 09:15:52;;;;;;;;;;;10.50;55.30;;;;;;6245270;23;20048;-72
2024/01/21 09:18:18;;;;;;;;;;;10.60;55.60;;;;;;6245279;23;19994;-72
2024/01/21 09:20:43;;;;;;;;;;;10.60;55.70;;;;;;6245253;23;19915;-72
2024/01/21 09:23:09;;;;;;;;;;;10.50;55.50;;;;;;6245268;23;19986;-72
2024/01/21 09:25:34;;;;;;;;;;;11.00;55.80;;;;;;6243623;23;19904;-72
2024/01/21 09:28:00;;;;;;;;;;;11.30;56.00;;;;;;6245184;23;20278;-72
2024/01/21 09:30:25;;;;;;;;;;;10.50;55.60;;;;;;6244069;23;20311;-72
2024/01/21 09:32:51;;;;;;;;;;;11.00;55.90;;;;;;6245057;23;19903;-72
2024/01/21 09:35:16;;;;;;;;;;;11.10;56.00;;;;;;6245195;23;19904;-72
2024/01/21 09:37:42;;;;;;;;;;;;;;;;;;6244984;23;20045;-72
2024/01/21 09:40:09;;;;;;;;;;;10.50;50.90;;;;;;6245137;23;19903;-72
2024/01/21 09:42:35;;;;;;;;;;;10.50;54.80;;;;;;6245175;23;20282;-72
2024/01/21 09:45:00;;;;;;;;;;;10.50;55.60;;;;;;6244837;22;19915;-72
2024/01/21 09:47:26;;;;;;;;;;;10.50;55.70;;;;;;6245189;23;19957;-72
2024/01/21 09:49:51;;;;;;;;;;;10.50;55.90;;;;;;6245040;23;19904;-72
2024/01/21 09:52:18;;;;;;;;;;;10.50;55.60;;;;;;6244914;23;19978;-72
2024/01/21 09:54:43;;;;;;;;;;;11.00;56.40;;;;;;6245109;23;20266;-72
2024/01/21 09:57:11;;;;;;;;;;;10.60;56.20;;;;;;6244988;23;19984;-72
2024/01/21 09:59:37;;;;;;;;;;;11.20;56.80;;;;;;6245629;23;19911;-72
2024/01/21 10:02:03;;;;;;;;;;;10.70;56.30;;;;;;6244963;23;20282;-72
2024/01/21 10:04:28;;;;;;;;;;;10.50;55.90;;;;;;6243367;23;19907;-72
2024/01/21 10:06:55;;;;;;;;;;;10.50;56.30;;;;;;6245055;23;19908;-72
2024/01/21 10:09:23;;;;;;;;;;;11.10;56.90;;;;;;6245100;23;20400;-72
2024/01/21 10:11:50;;;;;;;;;;;10.50;56.10;;;;;;6245191;23;19919;-72
2024/01/21 10:14:16;;;;;;;;;;;10.50;56.50;;;;;;6245715;23;20265;-72
2024/01/21 10:16:42;;;;;;;;;;;10.50;56.20;;;;;;6245528;23;19935;-71
2024/01/21 10:19:10;;;;;;;;;;;11.10;56.70;;;;;;6245581;23;19911;-72
2024/01/21 10:21:36;;;;;;;;;;;10.50;56.80;;;;;;6244071;23;19958;-71
2024/01/21 10:24:01;;;;;;;;;;;10.40;56.60;;;;;;6245224;23;19904;-72
2024/01/21 10:26:30;;;;;;;;;;;10.60;56.40;;;;;;6245332;23;20327;-72
2024/01/21 10:28:55;;;;;;;;;;;9.50;51.90;;;;;;6244985;23;19986;-73
2024/01/21 10:31:21;;;;;;;;;;;10.60;57.00;;;;;;6244953;23;19984;-72
2024/01/21 10:33:47;;;;;;;;;;;11.00;57.20;;;;;;6255294;23;19950;-72
2024/01/21 10:36:14;;;;;;;;;;;11.10;57.20;;;;;;6245220;23;20220;-72
2024/01/21 10:38:48;;;;;;;;;;;10.50;56.50;;;;;;6245215;23;19966;-71
2024/01/21 10:41:16;;;;;;;;;;;10.50;52.80;;;;;;6255252;23;19962;-72
2024/01/21 10:43:43;;;;;;;;;;;10.60;57.40;;;;;;6245412;23;19911;-72
2024/01/21 10:46:08;;;;;;;;;;;10.50;56.80;;;;;;6250518;22;19915;-70
2024/01/21 10:48:34;;;;;;;;;;;10.60;57.50;;;;;;6277564;22;20234;-69
2024/01/21 10:51:00;;;;;;;;;;;11.20;57.60;;;;;;6277598;22;20281;-71
2024/01/21 10:53:27;;;;;;;;;;;10.60;57.40;;;;;;6278177;22;20236;-70
2024/01/21 10:58:55;;;;;;;;;;;10.60;53.00;;;;;;6287851;22;19965;-74
2024/01/21 11:01:22;;;;;;;;;;;10.50;57.00;;;;;;6288221;22;19903;-73
2024/01/21 11:03:49;;;;;;;;;;;10.60;57.40;;;;;;6277770;22;19935;-73
2024/01/21 11:06:15;;;;;;;;;;;10.90;57.80;;;;;;6277830;22;19958;-73
2024/01/21 11:08:43;;;;;;;;;;;10.60;57.70;;;;;;6277964;22;19903;-74
2024/01/21 11:11:08;;;;;;;;;;;10.60;57.50;;;;;;6277467;22;19908;-73
2024/01/21 11:13:44;;;;;;;;;;;11.00;57.90;;;;;;6277241;22;19908;-73
2024/01/21 11:16:33;;;;;;;;;;;10.50;54.00;;;;;;6250301;22;19903;-75
2024/01/21 11:19:01;;;;;;;;;;;10.60;53.50;;;;;;6277690;22;20294;-72
2024/01/21 11:21:28;;;;;;;;;;;10.70;57.80;;;;;;6277284;22;19907;-72
2024/01/21 11:24:03;;;;;;;;;;;10.60;57.90;;;;;;6277343;22;20318;-76
2024/01/21 11:26:29;;;;;;;;;;;10.60;53.50;;;;;;6277996;22;19910;-75
2024/01/21 11:28:56;;;;;;;;;;;11.20;58.50;;;;;;6277329;22;19948;-78
2024/01/21 11:31:22;;;;;;;;;;;10.80;58.90;;;;;;6277193;22;19911;-73
2024/01/21 11:34:04;;;;;;;;;;;10.60;58.00;;;;;;6277602;22;19904;-73
2024/01/21 11:36:30;;;;;;;;;;;10.60;53.90;;;;;;6277223;22;19904;-73
2024/01/21 11:38:56;;;;;;;;;;;10.70;58.30;;;;;;6277063;22;19938;-74
2024/01/21 11:41:26;;;;;;;;;;;10.70;58.50;;;;;;6277185;22;19903;-74
2024/01/21 11:43:52;;;;;;;;;;;10.70;58.60;;;;;;6277520;22;19904;-74
2024/01/21 11:46:18;;;;;;;;;;;11.00;58.90;;;;;;6255490;22;19923;-73
2024/01/21 11:48:43;;;;;;;;;;;10.70;58.60;;;;;;6246445;23;19914;-74
2024/01/21 11:51:09;;;;;;;;;;;11.40;59.00;;;;;;6246498;23;20022;-72
2024/01/21 11:53:35;;;;;;;;;;;11.40;59.20;;;;;;6247191;23;19923;-73
2024/01/21 11:56:00;;;;;;;;;;;10.80;59.00;;;;;;6246900;23;19903;-72
2024/01/21 11:58:26;;;;;;;;;;;10.80;58.80;;;;;;6246186;23;19915;-72
2024/01/21 12:00:51;;;;;;;;;;;10.80;59.10;;;;;;6246376;23;20278;-72
2024/01/21 12:03:17;;;;;;;;;;;10.80;59.00;;;;;;6246230;23;20252;-72
2024/01/21 12:05:43;;;;;;;;;;;11.20;59.00;;;;;;6246337;23;20243;-72
2024/01/21 12:08:09;;;;;;;;;;;11.00;59.10;;;;;;6246337;23;19911;-73
2024/01/21 12:10:35;;;;;;;;;;;11.00;58.80;;;;;;6246407;23;20312;-72
2024/01/21 12:13:00;;;;;;;;;;;10.90;59.10;;;;;;6246333;23;19910;-72
2024/01/21 12:15:32;;;;;;;;;;;11.00;59.20;;;;;;6246820;23;19934;-72
2024/01/21 12:17:58;;;;;;;;;;;11.00;59.30;;;;;;6256719;23;20243;-73
2024/01/21 12:20:24;;;;;;;;;;;11.20;59.60;;;;;;6256425;23;19907;-72
2024/01/21 12:22:50;;;;;;;;;;;11.00;59.50;;;;;;6256313;23;19911;-72
2024/01/21 12:25:17;;;;;;;;;;;11.10;59.00;;;;;;6256340;23;19903;-72
2024/01/21 12:27:45;;;;;;;;;;;11.00;58.60;;;;;;6246963;23;20280;-75
2024/01/21 12:30:12;;;;;;;;;;;11.10;55.00;;;;;;6246359;23;19904;-72
2024/01/21 12:32:39;;;;;;;;;;;11.00;58.60;;;;;;6245972;23;19938;-72
2024/01/21 12:35:05;;;;;;;;;;;11.00;59.40;;;;;;6246224;23;19991;-73
2024/01/21 12:37:31;;;;;;;;;;;11.10;58.50;;;;;;6246491;23;19910;-73
2024/01/21 12:39:59;;;;;;;;;;;11.10;59.00;;;;;;6245945;23;19903;-76
2024/01/21 12:42:25;;;;;;;;;;;11.10;59.30;;;;;;6245888;23;19918;-75
2024/01/21 12:44:51;;;;;;;;;;;11.10;59.40;;;;;;6245815;22;19935;-73
2024/01/21 12:47:17;;;;;;;;;;;11.20;59.40;;;;;;6256041;22;20311;-73
2024/01/21 12:49:42;;;;;;;;;;;11.20;59.50;;;;;;6256043;23;19911;-73
2024/01/21 12:52:08;;;;;;;;;;;11.20;59.60;;;;;;6244165;23;19904;-73
2024/01/21 12:54:34;;;;;;;;;;;11.10;59.30;;;;;;6246002;23;19990;-72
2024/01/21 12:57:02;;;;;;;;;;;11.20;59.50;;;;;;6246797;23;19904;-73
2024/01/21 12:59:28;;;;;;;;;;;11.20;59.60;;;;;;6246025;23;20392;-75
2024/01/21 13:01:54;;;;;;;;;;;11.20;59.90;;;;;;6245998;23;19931;-71
2024/01/21 13:04:21;;;;;;;;;;;11.20;59.90;;;;;;6245713;23;19904;-74
2024/01/21 13:06:47;;;;;;;;;;;11.30;60.00;;;;;;6245273;23;19958;-72
2024/01/21 13:09:13;;;;;;;;;;;11.60;60.10;;;;;;6246240;23;19943;-71
2024/01/21 13:11:38;;;;;;;;;;;11.30;60.00;;;;;;6245470;23;19955;-72
2024/01/21 13:14:04;;;;;;;;;;;11.30;60.00;;;;;;6245514;23;20399;-72
2024/01/21 13:16:30;;;;;;;;;;;11.30;60.00;;;;;;6245930;23;19958;-72
2024/01/21 13:18:56;;;;;;;;;;;11.50;60.20;;;;;;6246006;23;20242;-72
2024/01/21 13:21:22;;;;;;;;;;;11.40;59.70;;;;;;6245466;23;19911;-75
2024/01/21 13:23:47;;;;;;;;;;;11.30;59.60;;;;;;6245912;23;19910;-75
2024/01/21 13:26:14;;;;;;;;;;;11.40;60.00;;;;;;6245800;23;20034;-73
2024/01/21 13:28:49;;;;;;;;;;;11.40;60.20;;;;;;6245623;23;19997;-73
2024/01/21 13:31:14;;;;;;;;;;;11.40;60.60;;;;;;6255093;23;20302;-73
2024/01/21 13:33:40;;;;;;;;;;;11.50;60.40;;;;;;6245857;23;19910;-73
2024/01/21 13:36:06;;;;;;;;;;;11.60;61.40;;;;;;6245291;23;19931;-73
2024/01/21 13:38:33;;;;;;;;;;;11.50;60.10;;;;;;6245106;23;19962;-73
2024/01/21 13:41:01;;;;;;;;;;;11.50;60.50;;;;;;6245160;23;19979;-73
2024/01/21 13:43:27;;;;;;;;;;;11.50;57.40;;;;;;6245042;23;19949;-73
2024/01/21 13:45:53;;;;;;;;;;;11.60;60.60;;;;;;6245287;22;20306;-73
2024/01/21 13:48:19;;;;;;;;;;;11.60;60.90;;;;;;6245321;23;19970;-73
2024/01/21 13:50:45;;;;;;;;;;;11.60;60.60;;;;;;6245379;23;19904;-73
2024/01/21 13:53:11;;;;;;;;;;;11.50;60.50;;;;;;6245757;23;19903;-73
2024/01/21 13:55:37;;;;;;;;;;;11.60;60.70;;;;;;6245810;23;19962;-74
2024/01/21 13:58:04;;;;;;;;;;;11.70;60.60;;;;;;6245132;23;19911;-73
2024/01/21 14:00:30;;;;;;;;;;;11.60;59.80;;;;;;6245147;23;19911;-73
2024/01/21 14:02:56;;;;;;;;;;;11.70;60.50;;;;;;6245218;23;19903;-73
2024/01/21 14:05:22;;;;;;;;;;;11.60;60.50;;;;;;6245343;23;19904;-73
2024/01/21 14:07:48;;;;;;;;;;;11.70;60.40;;;;;;6245160;23;19903;-73
2024/01/21 14:10:14;;;;;;;;;;;11.50;60.50;;;;;;6245098;23;19962;-73
2024/01/21 14:12:39;;;;;;;;;;;11.60;60.30;;;;;;6245049;23;19904;-73
2024/01/21 14:15:05;;;;;;;;;;;11.70;60.40;;;;;;6245362;23;20320;-73